الصفحة الرئيسية
METAR-TAF:

METAR-TAF

مطار :

مطار ياوندي

ياوندي, الكاميرون

دائرة عرض: 03-50N, خط طول: 011-31E, ارتفاع: 751 متر

مراقبة الطقس الحالي

تاريخ ووقت الإصدار 29 دقيقة قبل الساعة 15:00UTC
درجة الحرارة 31°درجة مئوية
الرطوبة 49%
ضغط 1015 hPa
الرؤية: 8000 متر
غيوم متفرقة على ارتفاع 2000 قدم

METAR: FKYS 141500Z /////KT 8000 SCT020 31/19 Q1015 NOSIG

زمن: 16:29 (15:29 UTC)

توقعات

تاريخ ووقت الإصدار 4ساعات و 29 دقيقة قبل الساعة 11:00UTC
التوقعات صالحة من14 الساعة 12 UTC إلى 15 الساعة 12 UTC
ريح 5 عقدةمن اتجاهات متغيرة
الرؤية: 7000 متر
غيوم متفرقة على ارتفاع 1600 قدم
أصبح
من 14 الساعة 22 UTC إلى 14 الساعة 24 UTC
غيوم مفككة على ارتفاع 600 قدم
نظرية الاحتمالات 40%
من 15 الساعة 02 UTC إلى 15 الساعة 06 UTC
الرؤية: 3000 متر
غشاء
أصبح
من 15 الساعة 06 UTC إلى 15 الساعة 10 UTC
غيوم متفرقة على ارتفاع 1600 قدم

TAF: FKYS 141100Z 1412/1512 VRB05KT 7000 SCT016 BECMG 1422/1424 BKN006 PROB40 1502/1506 3000 BR BECMG 1506/1510 SCT016

أرصاد الطقس والتوقعات من أكثر من 4000 مطار (تقارير الطقس للمطار METAR والتنبؤ بالطقس بالمطارTAF).

المحطات المتاحة هي النقط الصفراء والحمراء على الخريطة.

حرك المؤشر فوق النقطة لمعرفة اسم المحطة.

ثم انقر لمعرفة أرصاد وتوقعات الطقس.

لتغيير الخارطة: اضغط على الأزرار الخضراء مع رمز الصليب الأسود للتكبير. على الزر الأخضر مع شرطة للتصغير، أو على الأسهم الخضراء للخرائط المجاورة.


METAR-TAF: